CheckWX is a tool to help pilots better visualize weather data.  It is not intended as a substitute for an official pre-flight weather briefing.

14:00:03 UTC

KVBT METAR
Bentonville Municipal / Louise M Thaden Field Airport
Bentonville, Arkansas, USA
Current

1 hour ago

KVBT 201256Z AUTO 19005KT 10SM CLR 27/23 A3008 RMK AO2 SLP174 T02670233
Observed
Aug-20 @ 12:56 UTC
Wind
  • 190° at 5 KTS
Visibility
10 SM
Flight Rules
VFR
Cloud Levels
  • Clear skies
Temperature
27°C / 81°F
Dewpoint
23°C / 73°F
Heat Index
30°C / 86°F
Humidity
79%
Altimeter
30.08" Hg
Pressure
1018.62 hPa
Previous

2 hours ago

KVBT 201156Z AUTO 17004KT 10SM CLR 24/23 A3006 RMK AO2 SLP166 7//// T02440228 10261 20239 56002
Observed
Aug-20 @ 11:56 UTC
Wind
  • 170° at 4 KTS
Visibility
10 SM
Flight Rules
VFR
Cloud Levels
  • Clear skies
Temperature
24°C / 75°F
Dewpoint
23°C / 73°F
Humidity
94%
Altimeter
30.06" Hg
Pressure
1017.92 hPa
Previous

3 hours ago

KVBT 201056Z AUTO 18003KT 10SM CLR 24/23 A3006 RMK AO2 SLP166 T02440228
Observed
Aug-20 @ 10:56 UTC
Wind
  • 180° at 3 KTS
Visibility
10 SM
Flight Rules
VFR
Cloud Levels
  • Clear skies
Temperature
24°C / 75°F
Dewpoint
23°C / 73°F
Humidity
94%
Altimeter
30.06" Hg
Pressure
1017.92 hPa